createdAt,value
2022-08-04T00:14:03.652Z,953.21
2022-08-04T00:29:06.121Z,952.93
2022-08-04T00:44:08.350Z,952.83
2022-08-04T00:59:10.561Z,952.69
2022-08-04T01:14:12.986Z,952.49
2022-08-04T01:29:16.047Z,952.33
2022-08-04T01:44:18.433Z,952.17
2022-08-04T01:59:20.643Z,952.09
2022-08-04T02:14:22.930Z,951.97
2022-08-04T02:29:27.316Z,951.92
2022-08-04T02:44:32.779Z,951.96
2022-08-04T02:59:35.033Z,952.02
2022-08-04T03:14:37.258Z,952.06
2022-08-04T03:29:39.456Z,952.07
2022-08-04T03:44:41.657Z,952.15
2022-08-04T03:59:48.854Z,952.27
2022-08-04T04:14:51.459Z,952.29
2022-08-04T04:29:53.668Z,952.4
2022-08-04T04:44:55.955Z,952.44
2022-08-04T04:59:58.128Z,952.43
2022-08-04T05:15:00.329Z,952.31
2022-08-04T05:30:02.583Z,952.35
2022-08-04T05:45:04.826Z,952.48
2022-08-04T06:00:19.876Z,952.44
2022-08-04T06:15:46.130Z,952.49
2022-08-04T06:30:48.727Z,952.42
2022-08-04T06:45:50.969Z,952.35
2022-08-04T07:00:53.161Z,952.39
2022-08-04T07:15:55.375Z,952.48
2022-08-04T07:30:57.604Z,952.72
2022-08-04T07:45:59.835Z,952.92
2022-08-04T08:01:02.071Z,953.2
2022-08-04T08:16:05.227Z,953.25
2022-08-04T08:31:07.455Z,953.19
2022-08-04T08:46:09.631Z,953.14
2022-08-04T09:01:11.974Z,953.1
2022-08-04T09:16:14.432Z,953.24
2022-08-04T09:31:16.813Z,953.25
2022-08-04T09:46:19.082Z,953.63
2022-08-04T10:01:23.590Z,953.62
2022-08-04T10:16:26.307Z,953.71
2022-08-04T10:31:28.596Z,953.83
2022-08-04T10:46:30.957Z,953.96
2022-08-04T11:02:01.826Z,954.23
2022-08-04T11:17:05.605Z,954.47
2022-08-04T11:32:07.778Z,954.37
2022-08-04T11:47:09.966Z,954.42
2022-08-04T12:02:12.234Z,954.83
2022-08-04T12:17:14.573Z,955.01
2022-08-04T12:32:18.310Z,955.47
2022-08-04T12:47:27.588Z,955.8
2022-08-04T13:02:39.229Z,956.13
2022-08-04T13:17:41.475Z,956.39
2022-08-04T13:32:43.765Z,956.6
2022-08-04T13:47:45.963Z,956.63
2022-08-04T14:02:48.199Z,956.81
2022-08-04T14:17:50.581Z,956.94
2022-08-04T14:32:52.974Z,957.08
2022-08-04T14:47:58.791Z,957.3
2022-08-04T15:03:01.016Z,957.36
2022-08-04T15:18:03.185Z,957.37
2022-08-04T15:33:05.357Z,957.41
2022-08-04T15:48:07.550Z,957.54
2022-08-04T16:03:09.775Z,957.6
2022-08-04T16:18:25.592Z,957.61
2022-08-04T16:33:28.296Z,957.61
2022-08-04T16:48:46.607Z,957.71
2022-08-04T17:03:56.084Z,957.6
2022-08-04T17:19:00.154Z,957.6
2022-08-04T17:34:02.358Z,957.74
2022-08-04T17:49:04.742Z,957.68
2022-08-04T18:04:06.915Z,957.46
2022-08-04T18:19:09.930Z,957.11
2022-08-04T18:34:20.509Z,957.05
2022-08-04T18:50:58.737Z,956.97
2022-08-04T19:06:12.385Z,956.88
2022-08-04T19:21:14.741Z,957.03
2022-08-04T19:36:17.267Z,957.14
2022-08-04T19:51:19.708Z,957.12
2022-08-04T20:06:24.789Z,957.06
2022-08-04T20:21:54.016Z,956.89
2022-08-04T20:36:58.814Z,956.72
2022-08-04T20:52:04.885Z,956.63
2022-08-04T21:07:10.937Z,956.6
2022-08-04T21:22:29.778Z,956.51
2022-08-04T21:37:56.688Z,956.33
2022-08-04T21:53:01.016Z,956.26
2022-08-04T22:08:03.362Z,956.01
2022-08-04T22:23:06.389Z,955.99
2022-08-04T22:38:27.857Z,956.04
2022-08-04T22:53:39.713Z,956.19
2022-08-04T23:08:43.290Z,956.9
2022-08-04T23:24:00.701Z,957.54
2022-08-04T23:39:05.541Z,958.23
2022-08-04T23:54:08.139Z,959.04
